sensor_id;sensor_type;location;lat;lon;timestamp;pressure;altitude;pressure_sealevel;temperature;humidity
16100;BME280;8154;50.830;12.082;2022-12-18T00:00:00;100847.75;;;21.64;29.05
16100;BME280;8154;50.830;12.082;2022-12-18T00:02:44;100853.91;;;21.65;29.01
16100;BME280;8154;50.830;12.082;2022-12-18T00:05:30;100840.50;;;21.57;29.18
16100;BME280;8154;50.830;12.082;2022-12-18T00:08:14;100849.50;;;21.56;29.27
16100;BME280;8154;50.830;12.082;2022-12-18T00:11:13;100847.84;;;21.55;29.26
16100;BME280;8154;50.830;12.082;2022-12-18T00:13:59;100853.38;;;21.61;29.03
16100;BME280;8154;50.830;12.082;2022-12-18T00:16:45;100854.06;;;21.63;29.00
16100;BME280;8154;50.830;12.082;2022-12-18T00:19:30;100856.13;;;21.69;28.92
16100;BME280;8154;50.830;12.082;2022-12-18T00:22:14;100859.38;;;21.63;29.07
16100;BME280;8154;50.830;12.082;2022-12-18T00:24:59;100865.00;;;21.60;29.00
16100;BME280;8154;50.830;12.082;2022-12-18T00:27:44;100859.13;;;21.57;29.07
16100;BME280;8154;50.830;12.082;2022-12-18T00:30:29;100863.50;;;21.58;29.07
16100;BME280;8154;50.830;12.082;2022-12-18T00:33:13;100857.63;;;21.54;29.15
16100;BME280;8154;50.830;12.082;2022-12-18T00:36:10;100861.28;;;21.53;29.20
16100;BME280;8154;50.830;12.082;2022-12-18T00:38:57;100853.50;;;21.60;29.01
16100;BME280;8154;50.830;12.082;2022-12-18T00:41:42;100859.53;;;21.62;29.03
16100;BME280;8154;50.830;12.082;2022-12-18T00:44:44;100853.06;;;21.64;28.97
16100;BME280;8154;50.830;12.082;2022-12-18T00:47:29;100858.91;;;21.50;29.09
16100;BME280;8154;50.830;12.082;2022-12-18T00:50:18;100861.59;;;21.50;29.17
16100;BME280;8154;50.830;12.082;2022-12-18T00:53:04;100862.41;;;21.51;29.20
16100;BME280;8154;50.830;12.082;2022-12-18T00:55:48;100873.09;;;21.41;29.22
16100;BME280;8154;50.830;12.082;2022-12-18T00:58:32;100870.22;;;21.52;29.08
16100;BME280;8154;50.830;12.082;2022-12-18T01:01:18;100873.75;;;21.53;29.04
16100;BME280;8154;50.830;12.082;2022-12-18T01:04:03;100870.38;;;21.51;29.12
16100;BME280;8154;50.830;12.082;2022-12-18T01:06:48;100868.72;;;21.50;29.07
16100;BME280;8154;50.830;12.082;2022-12-18T01:09:33;100877.00;;;21.47;29.15
16100;BME280;8154;50.830;12.082;2022-12-18T01:12:18;100871.53;;;21.48;29.18
16100;BME280;8154;50.830;12.082;2022-12-18T01:15:07;100875.56;;;21.52;29.13
16100;BME280;8154;50.830;12.082;2022-12-18T01:17:53;100873.88;;;21.51;29.07
16100;BME280;8154;50.830;12.082;2022-12-18T01:20:38;100874.44;;;21.55;28.96
16100;BME280;8154;50.830;12.082;2022-12-18T01:23:22;100874.81;;;21.60;29.02
16100;BME280;8154;50.830;12.082;2022-12-18T01:26:11;100883.16;;;21.47;29.16
16100;BME280;8154;50.830;12.082;2022-12-18T01:28:58;100891.25;;;21.46;29.16
16100;BME280;8154;50.830;12.082;2022-12-18T01:31:45;100891.97;;;21.48;29.12
16100;BME280;8154;50.830;12.082;2022-12-18T01:34:30;100906.81;;;21.50;29.22
16100;BME280;8154;50.830;12.082;2022-12-18T01:37:14;100900.34;;;21.53;29.09
16100;BME280;8154;50.830;12.082;2022-12-18T01:40:03;100913.09;;;21.49;29.13
16100;BME280;8154;50.830;12.082;2022-12-18T01:42:52;100917.16;;;21.53;29.12
16100;BME280;8154;50.830;12.082;2022-12-18T01:45:38;100921.91;;;21.50;29.07
16100;BME280;8154;50.830;12.082;2022-12-18T01:48:22;100914.38;;;21.45;29.21
16100;BME280;8154;50.830;12.082;2022-12-18T01:51:09;100925.72;;;21.47;29.17
16100;BME280;8154;50.830;12.082;2022-12-18T01:53:55;100920.81;;;21.43;29.22
16100;BME280;8154;50.830;12.082;2022-12-18T01:56:44;100915.31;;;21.54;28.93
16100;BME280;8154;50.830;12.082;2022-12-18T01:59:31;100921.19;;;21.57;29.04
16100;BME280;8154;50.830;12.082;2022-12-18T02:02:17;100919.06;;;21.61;28.88
16100;BME280;8154;50.830;12.082;2022-12-18T02:05:02;100926.19;;;21.60;28.88
16100;BME280;8154;50.830;12.082;2022-12-18T02:14:05;100914.09;;;21.48;29.21
16100;BME280;8154;50.830;12.082;2022-12-18T02:29:47;100913.63;;;21.53;28.96
16100;BME280;8154;50.830;12.082;2022-12-18T02:32:49;100911.13;;;21.51;28.88
16100;BME280;8154;50.830;12.082;2022-12-18T02:35:36;100904.16;;;21.50;29.05
16100;BME280;8154;50.830;12.082;2022-12-18T02:38:22;100908.63;;;21.50;29.16
16100;BME280;8154;50.830;12.082;2022-12-18T02:41:08;100888.25;;;21.58;28.96
16100;BME280;8154;50.830;12.082;2022-12-18T02:43:58;100894.63;;;21.48;29.12
16100;BME280;8154;50.830;12.082;2022-12-18T02:46:53;100909.84;;;21.55;28.86
16100;BME280;8154;50.830;12.082;2022-12-18T02:59:13;100907.91;;;21.48;29.17
16100;BME280;8154;50.830;12.082;2022-12-18T03:02:27;100902.16;;;21.52;29.03
16100;BME280;8154;50.830;12.082;2022-12-18T03:05:22;100904.00;;;21.52;28.80
16100;BME280;8154;50.830;12.082;2022-12-18T03:08:14;100907.47;;;21.52;28.99
16100;BME280;8154;50.830;12.082;2022-12-18T03:11:04;100893.09;;;21.45;29.01
16100;BME280;8154;50.830;12.082;2022-12-18T03:13:52;100899.84;;;21.40;29.14
16100;BME280;8154;50.830;12.082;2022-12-18T03:16:41;100912.03;;;21.42;29.10
16100;BME280;8154;50.830;12.082;2022-12-18T03:19:29;100899.97;;;21.38;29.17
16100;BME280;8154;50.830;12.082;2022-12-18T03:22:16;100910.03;;;21.44;29.05
16100;BME280;8154;50.830;12.082;2022-12-18T03:25:03;100909.22;;;21.44;28.99
16100;BME280;8154;50.830;12.082;2022-12-18T03:27:51;100899.78;;;21.49;28.92
16100;BME280;8154;50.830;12.082;2022-12-18T03:30:39;100903.34;;;21.40;29.06
16100;BME280;8154;50.830;12.082;2022-12-18T03:33:52;100913.56;;;21.35;29.12
16100;BME280;8154;50.830;12.082;2022-12-18T03:36:37;100916.00;;;21.29;29.20
16100;BME280;8154;50.830;12.082;2022-12-18T03:39:22;100926.06;;;21.35;29.15
16100;BME280;8154;50.830;12.082;2022-12-18T03:45:08;100932.59;;;21.40;29.08
16100;BME280;8154;50.830;12.082;2022-12-18T03:48:01;100927.16;;;21.32;29.21
16100;BME280;8154;50.830;12.082;2022-12-18T03:50:57;100910.41;;;21.32;29.12
16100;BME280;8154;50.830;12.082;2022-12-18T03:56:40;100918.53;;;21.30;29.11
16100;BME280;8154;50.830;12.082;2022-12-18T03:59:27;100922.56;;;21.34;29.09
16100;BME280;8154;50.830;12.082;2022-12-18T04:02:15;100930.53;;;21.34;29.13
16100;BME280;8154;50.830;12.082;2022-12-18T04:05:03;100925.22;;;21.34;29.11
16100;BME280;8154;50.830;12.082;2022-12-18T04:07:51;100926.56;;;21.38;29.06
16100;BME280;8154;50.830;12.082;2022-12-18T04:10:39;100929.00;;;21.32;29.10
16100;BME280;8154;50.830;12.082;2022-12-18T04:13:32;100946.94;;;21.30;29.17
16100;BME280;8154;50.830;12.082;2022-12-18T04:16:18;100951.84;;;21.25;29.21
16100;BME280;8154;50.830;12.082;2022-12-18T04:19:02;100959.38;;;21.29;29.17
16100;BME280;8154;50.830;12.082;2022-12-18T04:21:50;100945.13;;;21.30;29.17
16100;BME280;8154;50.830;12.082;2022-12-18T04:24:35;100935.00;;;21.34;29.00
16100;BME280;8154;50.830;12.082;2022-12-18T04:27:19;100931.91;;;21.38;28.99
16100;BME280;8154;50.830;12.082;2022-12-18T04:30:04;100929.25;;;21.38;28.95
16100;BME280;8154;50.830;12.082;2022-12-18T04:32:48;100930.09;;;21.39;28.91
16100;BME280;8154;50.830;12.082;2022-12-18T04:35:33;100927.31;;;21.31;29.12
16100;BME280;8154;50.830;12.082;2022-12-18T04:38:18;100923.53;;;21.33;29.06
16100;BME280;8154;50.830;12.082;2022-12-18T04:41:03;100910.13;;;21.25;29.07
16100;BME280;8154;50.830;12.082;2022-12-18T04:43:50;100912.91;;;21.33;29.04
16100;BME280;8154;50.830;12.082;2022-12-18T04:46:38;100911.75;;;21.36;28.83
16100;BME280;8154;50.830;12.082;2022-12-18T04:49:23;100905.59;;;21.35;28.82
16100;BME280;8154;50.830;12.082;2022-12-18T04:52:08;100908.09;;;21.37;28.82
16100;BME280;8154;50.830;12.082;2022-12-18T04:54:52;100916.53;;;21.32;29.05
16100;BME280;8154;50.830;12.082;2022-12-18T04:57:37;100912.34;;;21.30;29.13
16100;BME280;8154;50.830;12.082;2022-12-18T05:00:22;100924.41;;;21.24;29.08
16100;BME280;8154;50.830;12.082;2022-12-18T05:03:12;100921.84;;;21.32;28.97
16100;BME280;8154;50.830;12.082;2022-12-18T05:05:57;100928.56;;;21.36;28.89
16100;BME280;8154;50.830;12.082;2022-12-18T05:08:42;100933.19;;;21.34;28.87
16100;BME280;8154;50.830;12.082;2022-12-18T05:11:26;100933.91;;;21.27;28.95
16100;BME280;8154;50.830;12.082;2022-12-18T05:14:10;100930.41;;;21.26;28.98
16100;BME280;8154;50.830;12.082;2022-12-18T05:16:55;100929.84;;;21.23;29.19
16100;BME280;8154;50.830;12.082;2022-12-18T05:19:39;100938.69;;;21.23;29.10
16100;BME280;8154;50.830;12.082;2022-12-18T05:22:52;100947.06;;;21.28;29.06
16100;BME280;8154;50.830;12.082;2022-12-18T05:25:37;100942.31;;;21.32;28.92
16100;BME280;8154;50.830;12.082;2022-12-18T05:28:23;100943.38;;;21.39;28.91
16100;BME280;8154;50.830;12.082;2022-12-18T05:31:08;100936.41;;;21.38;28.81
16100;BME280;8154;50.830;12.082;2022-12-18T05:33:54;100945.50;;;21.35;28.92
16100;BME280;8154;50.830;12.082;2022-12-18T05:36:39;100942.31;;;21.32;28.90
16100;BME280;8154;50.830;12.082;2022-12-18T05:39:23;100949.19;;;21.25;28.88
16100;BME280;8154;50.830;12.082;2022-12-18T05:42:08;100954.06;;;21.29;29.02
16100;BME280;8154;50.830;12.082;2022-12-18T05:44:55;100962.75;;;21.31;28.92
16100;BME280;8154;50.830;12.082;2022-12-18T05:47:40;100961.75;;;21.32;29.02
16100;BME280;8154;50.830;12.082;2022-12-18T05:50:26;100959.06;;;21.32;28.85
16100;BME280;8154;50.830;12.082;2022-12-18T05:53:12;100962.47;;;21.25;28.98
16100;BME280;8154;50.830;12.082;2022-12-18T05:56:00;100965.84;;;21.17;29.14
16100;BME280;8154;50.830;12.082;2022-12-18T05:58:50;100959.03;;;21.14;28.98
16100;BME280;8154;50.830;12.082;2022-12-18T06:01:34;100966.28;;;21.22;29.11
16100;BME280;8154;50.830;12.082;2022-12-18T06:04:19;100976.34;;;21.18;29.07
16100;BME280;8154;50.830;12.082;2022-12-18T06:07:03;100969.75;;;21.23;29.00
16100;BME280;8154;50.830;12.082;2022-12-18T06:09:47;100969.31;;;21.27;28.95
16100;BME280;8154;50.830;12.082;2022-12-18T06:12:32;100966.66;;;21.27;28.97
16100;BME280;8154;50.830;12.082;2022-12-18T06:15:28;100978.31;;;21.16;29.18
16100;BME280;8154;50.830;12.082;2022-12-18T06:18:13;100973.41;;;21.22;29.09
16100;BME280;8154;50.830;12.082;2022-12-18T06:21:01;100981.22;;;21.23;29.02
16100;BME280;8154;50.830;12.082;2022-12-18T06:23:46;100992.16;;;21.20;29.09
16100;BME280;8154;50.830;12.082;2022-12-18T06:26:30;100990.59;;;21.27;29.01
16100;BME280;8154;50.830;12.082;2022-12-18T06:29:15;100981.09;;;21.25;29.07
16100;BME280;8154;50.830;12.082;2022-12-18T06:31:59;100982.59;;;21.27;28.91
16100;BME280;8154;50.830;12.082;2022-12-18T06:34:43;100983.47;;;21.18;29.02
16100;BME280;8154;50.830;12.082;2022-12-18T06:37:31;100990.06;;;21.14;29.17
16100;BME280;8154;50.830;12.082;2022-12-18T06:40:21;100993.59;;;21.14;29.17
16100;BME280;8154;50.830;12.082;2022-12-18T06:43:16;100981.81;;;21.17;28.96
16100;BME280;8154;50.830;12.082;2022-12-18T06:46:03;100991.28;;;21.29;28.88
16100;BME280;8154;50.830;12.082;2022-12-18T06:48:56;100990.34;;;21.21;28.98
16100;BME280;8154;50.830;12.082;2022-12-18T06:51:46;100994.53;;;21.13;29.16
16100;BME280;8154;50.830;12.082;2022-12-18T06:54:32;100979.56;;;21.22;29.00
16100;BME280;8154;50.830;12.082;2022-12-18T06:57:16;100987.69;;;21.21;29.03
16100;BME280;8154;50.830;12.082;2022-12-18T07:00:02;100986.56;;;21.23;29.00
16100;BME280;8154;50.830;12.082;2022-12-18T07:02:46;100983.03;;;21.23;28.97
16100;BME280;8154;50.830;12.082;2022-12-18T07:05:31;100987.25;;;21.25;28.93
16100;BME280;8154;50.830;12.082;2022-12-18T07:08:16;100975.34;;;21.19;28.97
16100;BME280;8154;50.830;12.082;2022-12-18T07:11:03;100984.88;;;21.22;28.93
16100;BME280;8154;50.830;12.082;2022-12-18T07:13:48;100987.25;;;21.25;28.90
16100;BME280;8154;50.830;12.082;2022-12-18T07:16:33;100987.69;;;21.21;28.96
16100;BME280;8154;50.830;12.082;2022-12-18T07:19:20;100990.19;;;21.22;28.93
16100;BME280;8154;50.830;12.082;2022-12-18T07:22:04;100994.53;;;21.13;29.14
16100;BME280;8154;50.830;12.082;2022-12-18T07:24:49;100997.75;;;21.17;28.95
16100;BME280;8154;50.830;12.082;2022-12-18T07:27:33;100992.31;;;21.18;29.09
16100;BME280;8154;50.830;12.082;2022-12-18T07:30:17;100997.31;;;21.22;28.85
16100;BME280;8154;50.830;12.082;2022-12-18T07:33:03;101003.50;;;21.22;28.94
16100;BME280;8154;50.830;12.082;2022-12-18T07:35:48;101006.88;;;21.14;29.10
16100;BME280;8154;50.830;12.082;2022-12-18T07:38:33;101009.25;;;21.17;28.99
16100;BME280;8154;50.830;12.082;2022-12-18T07:41:21;100996.91;;;21.16;29.21
16100;BME280;8154;50.830;12.082;2022-12-18T07:44:08;100997.19;;;21.23;28.93
16100;BME280;8154;50.830;12.082;2022-12-18T07:46:58;100998.19;;;21.22;28.93
16100;BME280;8154;50.830;12.082;2022-12-18T07:49:57;100998.19;;;21.22;28.95
16100;BME280;8154;50.830;12.082;2022-12-18T07:52:45;100997.47;;;21.20;28.93
16100;BME280;8154;50.830;12.082;2022-12-18T07:55:31;100997.06;;;21.15;29.00
16100;BME280;8154;50.830;12.082;2022-12-18T07:58:16;101009.69;;;21.13;29.09
16100;BME280;8154;50.830;12.082;2022-12-18T08:01:13;101012.59;;;21.19;29.02
16100;BME280;8154;50.830;12.082;2022-12-18T08:03:58;101012.16;;;21.24;29.12
16100;BME280;8154;50.830;12.082;2022-12-18T08:06:44;101029.22;;;21.31;28.79
16100;BME280;8154;50.830;12.082;2022-12-18T08:09:31;101038.88;;;21.32;28.83
16100;BME280;8154;50.830;12.082;2022-12-18T08:12:16;101045.19;;;21.31;28.83
16100;BME280;8154;50.830;12.082;2022-12-18T08:15:01;101051.22;;;21.24;28.94
16100;BME280;8154;50.830;12.082;2022-12-18T08:17:47;101048.69;;;21.22;28.90
16100;BME280;8154;50.830;12.082;2022-12-18T08:20:32;101048.41;;;21.25;28.93
16100;BME280;8154;50.830;12.082;2022-12-18T08:23:17;101051.34;;;21.32;28.75
16100;BME280;8154;50.830;12.082;2022-12-18T08:26:02;101051.50;;;21.30;28.73
16100;BME280;8154;50.830;12.082;2022-12-18T08:28:49;101044.47;;;21.29;28.96
16100;BME280;8154;50.830;12.082;2022-12-18T08:31:36;101052.88;;;21.34;28.76
16100;BME280;8154;50.830;12.082;2022-12-18T08:34:20;101052.31;;;21.31;28.72
16100;BME280;8154;50.830;12.082;2022-12-18T08:37:09;101050.09;;;21.26;28.81
16100;BME280;8154;50.830;12.082;2022-12-18T08:39:56;101038.06;;;21.22;28.92
16100;BME280;8154;50.830;12.082;2022-12-18T08:42:40;101041.41;;;21.24;28.91
16100;BME280;8154;50.830;12.082;2022-12-18T08:45:43;101038.06;;;21.22;28.88
16100;BME280;8154;50.830;12.082;2022-12-18T08:48:29;101044.19;;;21.32;28.71
16100;BME280;8154;50.830;12.082;2022-12-18T08:51:16;101033.97;;;21.28;28.85
16100;BME280;8154;50.830;12.082;2022-12-18T08:54:02;101041.41;;;21.24;28.76
16100;BME280;8154;50.830;12.082;2022-12-18T08:56:48;101037.22;;;21.22;28.95
16100;BME280;8154;50.830;12.082;2022-12-18T08:59:36;101044.91;;;21.15;29.05
16100;BME280;8154;50.830;12.082;2022-12-18T09:02:21;101033.41;;;21.24;28.87
16100;BME280;8154;50.830;12.082;2022-12-18T09:05:09;101033.03;;;21.29;28.81
16100;BME280;8154;50.830;12.082;2022-12-18T09:07:54;101030.47;;;21.27;28.65
16100;BME280;8154;50.830;12.082;2022-12-18T09:10:43;101031.88;;;21.31;28.84
16100;BME280;8154;50.830;12.082;2022-12-18T09:13:29;101024.59;;;21.33;28.68
16100;BME280;8154;50.830;12.082;2022-12-18T09:16:15;101022.75;;;21.34;28.82
16100;BME280;8154;50.830;12.082;2022-12-18T09:18:59;101018.44;;;21.33;28.77
16100;BME280;8154;50.830;12.082;2022-12-18T09:21:45;101024.91;;;21.30;28.68
16100;BME280;8154;50.830;12.082;2022-12-18T09:24:30;101025.72;;;21.31;28.88
16100;BME280;8154;50.830;12.082;2022-12-18T09:27:17;101024.31;;;21.36;28.75
16100;BME280;8154;50.830;12.082;2022-12-18T09:30:10;101019.28;;;21.33;28.86
16100;BME280;8154;50.830;12.082;2022-12-18T09:32:57;101013.38;;;21.39;28.76
16100;BME280;8154;50.830;12.082;2022-12-18T09:35:52;101010.47;;;21.33;28.78
16100;BME280;8154;50.830;12.082;2022-12-18T09:38:37;101018.59;;;21.31;28.77
16100;BME280;8154;50.830;12.082;2022-12-18T09:44:41;101009.03;;;21.38;28.72
16100;BME280;8154;50.830;12.082;2022-12-18T09:47:36;100998.94;;;21.42;28.71
16100;BME280;8154;50.830;12.082;2022-12-18T09:53:16;100986.50;;;21.42;28.66
16100;BME280;8154;50.830;12.082;2022-12-18T09:56:05;100974.16;;;21.41;28.65
16100;BME280;8154;50.830;12.082;2022-12-18T09:59:01;100970.31;;;21.26;28.94
16100;BME280;8154;50.830;12.082;2022-12-18T10:01:47;100956.00;;;21.27;28.88
16100;BME280;8154;50.830;12.082;2022-12-18T10:04:32;100950.81;;;21.35;28.89
16100;BME280;8154;50.830;12.082;2022-12-18T10:07:19;100948.72;;;21.39;28.80
16100;BME280;8154;50.830;12.082;2022-12-18T10:10:38;100944.34;;;21.47;28.61
16100;BME280;8154;50.830;12.082;2022-12-18T10:13:36;100955.66;;;21.49;28.70
16100;BME280;8154;50.830;12.082;2022-12-18T10:16:36;100954.69;;;21.50;28.72
16100;BME280;8154;50.830;12.082;2022-12-18T10:26:06;100952.44;;;21.46;28.96
16100;BME280;8154;50.830;12.082;2022-12-18T10:28:53;100949.25;;;21.42;29.02
16100;BME280;8154;50.830;12.082;2022-12-18T10:31:39;100948.72;;;21.39;29.07
16100;BME280;8154;50.830;12.082;2022-12-18T10:34:24;100952.81;;;21.33;29.19
16100;BME280;8154;50.830;12.082;2022-12-18T10:37:15;100944.53;;;21.36;29.18
16100;BME280;8154;50.830;12.082;2022-12-18T10:40:13;100930.97;;;21.30;29.25
16100;BME280;8154;50.830;12.082;2022-12-18T10:43:14;100934.41;;;21.40;29.18
16100;BME280;8154;50.830;12.082;2022-12-18T10:48:58;100922.09;;;21.39;29.13
16100;BME280;8154;50.830;12.082;2022-12-18T10:51:44;100918.41;;;21.49;29.07
16100;BME280;8154;50.830;12.082;2022-12-18T10:54:32;100925.66;;;21.57;28.88
16100;BME280;8154;50.830;12.082;2022-12-18T10:58:03;100918.63;;;21.65;28.70
16100;BME280;8154;50.830;12.082;2022-12-18T11:00:41;100911.28;;;21.77;28.59
16100;BME280;8154;50.830;12.082;2022-12-18T11:03:35;100917.19;;;21.71;28.69
16100;BME280;8154;50.830;12.082;2022-12-18T11:06:23;100922.25;;;21.64;28.77
16100;BME280;8154;50.830;12.082;2022-12-18T11:09:21;100926.84;;;21.72;28.69
16100;BME280;8154;50.830;12.082;2022-12-18T11:12:22;100925.84;;;21.73;28.72
16100;BME280;8154;50.830;12.082;2022-12-18T11:15:15;100926.91;;;21.89;28.46
16100;BME280;8154;50.830;12.082;2022-12-18T11:18:04;100927.06;;;21.88;28.58
16100;BME280;8154;50.830;12.082;2022-12-18T11:20:52;100925.22;;;21.88;28.43
16100;BME280;8154;50.830;12.082;2022-12-18T11:23:53;100924.25;;;21.89;28.59
16100;BME280;8154;50.830;12.082;2022-12-18T11:26:38;100925.78;;;21.92;28.55
16100;BME280;8154;50.830;12.082;2022-12-18T11:29:38;100927.00;;;21.97;28.46
16100;BME280;8154;50.830;12.082;2022-12-18T11:38:27;100922.59;;;22.06;28.31
16100;BME280;8154;50.830;12.082;2022-12-18T11:44:48;100914.16;;;22.10;28.26
16100;BME280;8154;50.830;12.082;2022-12-18T11:48:03;100917.94;;;22.08;28.27
16100;BME280;8154;50.830;12.082;2022-12-18T11:50:57;100920.59;;;22.08;28.22
16100;BME280;8154;50.830;12.082;2022-12-18T11:53:46;100918.41;;;22.03;28.41
16100;BME280;8154;50.830;12.082;2022-12-18T11:56:44;100916.97;;;22.09;28.29
16100;BME280;8154;50.830;12.082;2022-12-18T12:09:01;100899.25;;;22.17;28.08
16100;BME280;8154;50.830;12.082;2022-12-18T12:18:08;100887.59;;;22.01;28.44
16100;BME280;8154;50.830;12.082;2022-12-18T12:21:34;100876.72;;;22.12;28.38
16100;BME280;8154;50.830;12.082;2022-12-18T12:30:19;100848.41;;;22.11;28.21
16100;BME280;8154;50.830;12.082;2022-12-18T12:33:29;100853.22;;;22.07;28.39
16100;BME280;8154;50.830;12.082;2022-12-18T12:39:30;100858.75;;;22.14;28.30
16100;BME280;8154;50.830;12.082;2022-12-18T12:42:41;100849.88;;;22.23;28.26
16100;BME280;8154;50.830;12.082;2022-12-18T12:45:52;100847.06;;;22.24;28.24
16100;BME280;8154;50.830;12.082;2022-12-18T12:49:15;100852.38;;;22.24;28.22
16100;BME280;8154;50.830;12.082;2022-12-18T12:52:10;100859.81;;;22.21;28.29
16100;BME280;8154;50.830;12.082;2022-12-18T12:55:06;100854.66;;;22.19;28.18
16100;BME280;8154;50.830;12.082;2022-12-18T12:58:26;100858.91;;;22.12;28.44
16100;BME280;8154;50.830;12.082;2022-12-18T13:01:39;100854.66;;;22.19;28.32
16100;BME280;8154;50.830;12.082;2022-12-18T13:04:49;100842.22;;;22.28;28.23
16100;BME280;8154;50.830;12.082;2022-12-18T13:07:51;100848.25;;;22.30;28.15
16100;BME280;8154;50.830;12.082;2022-12-18T13:10:40;100844.22;;;22.26;28.18
16100;BME280;8154;50.830;12.082;2022-12-18T13:13:50;100850.06;;;22.29;28.17
16100;BME280;8154;50.830;12.082;2022-12-18T13:16:36;100837.97;;;22.17;28.14
16100;BME280;8154;50.830;12.082;2022-12-18T13:19:22;100845.97;;;22.17;28.21
16100;BME280;8154;50.830;12.082;2022-12-18T13:22:30;100840.81;;;22.16;28.30
16100;BME280;8154;50.830;12.082;2022-12-18T13:25:36;100843.78;;;22.13;28.38
16100;BME280;8154;50.830;12.082;2022-12-18T13:34:30;100833.81;;;22.15;28.25
16100;BME280;8154;50.830;12.082;2022-12-18T13:49:40;100819.13;;;22.11;28.44
16100;BME280;8154;50.830;12.082;2022-12-18T13:52:28;100813.31;;;22.15;28.21
16100;BME280;8154;50.830;12.082;2022-12-18T13:55:19;100819.66;;;22.14;28.18
16100;BME280;8154;50.830;12.082;2022-12-18T13:58:05;100817.22;;;22.03;28.62
16100;BME280;8154;50.830;12.082;2022-12-18T14:00:51;100823.56;;;22.02;28.86
16100;BME280;8154;50.830;12.082;2022-12-18T14:03:38;100821.75;;;22.03;29.03
16100;BME280;8154;50.830;12.082;2022-12-18T14:06:24;100806.88;;;22.00;29.26
16100;BME280;8154;50.830;12.082;2022-12-18T14:09:21;100798.44;;;22.05;29.25
16100;BME280;8154;50.830;12.082;2022-12-18T14:12:32;100795.94;;;22.03;29.28
16100;BME280;8154;50.830;12.082;2022-12-18T14:15:42;100798.97;;;22.08;29.23
16100;BME280;8154;50.830;12.082;2022-12-18T14:18:54;100811.28;;;22.09;29.24
16100;BME280;8154;50.830;12.082;2022-12-18T14:21:40;100810.78;;;22.06;29.29
16100;BME280;8154;50.830;12.082;2022-12-18T14:24:26;100813.38;;;21.98;29.19
16100;BME280;8154;50.830;12.082;2022-12-18T14:27:22;100819.50;;;21.98;29.28
16100;BME280;8154;50.830;12.082;2022-12-18T14:30:25;100816.09;;;22.06;29.04
16100;BME280;8154;50.830;12.082;2022-12-18T14:33:22;100811.09;;;22.03;29.22
16100;BME280;8154;50.830;12.082;2022-12-18T14:36:19;100807.28;;;22.05;29.10
16100;BME280;8154;50.830;12.082;2022-12-18T14:39:04;100809.31;;;22.11;28.89
16100;BME280;8154;50.830;12.082;2022-12-18T14:41:49;100815.56;;;22.02;29.04
16100;BME280;8154;50.830;12.082;2022-12-18T14:44:39;100815.03;;;21.99;29.12
16100;BME280;8154;50.830;12.082;2022-12-18T14:47:24;100820.66;;;21.96;29.19
16100;BME280;8154;50.830;12.082;2022-12-18T14:50:13;100808.13;;;21.88;29.25
16100;BME280;8154;50.830;12.082;2022-12-18T14:52:58;100802.34;;;21.93;29.19
16100;BME280;8154;50.830;12.082;2022-12-18T14:55:46;100802.88;;;21.96;29.08
16100;BME280;8154;50.830;12.082;2022-12-18T14:58:32;100808.69;;;22.00;29.00
16100;BME280;8154;50.830;12.082;2022-12-18T15:01:45;100801.56;;;22.00;29.03
16100;BME280;8154;50.830;12.082;2022-12-18T15:04:39;100798.00;;;21.92;29.07
16100;BME280;8154;50.830;12.082;2022-12-18T15:07:24;100810.63;;;21.90;29.05
16100;BME280;8154;50.830;12.082;2022-12-18T15:10:25;100816.09;;;21.88;29.15
16100;BME280;8154;50.830;12.082;2022-12-18T15:13:21;100820.72;;;21.86;29.28
16100;BME280;8154;50.830;12.082;2022-12-18T15:16:13;100823.31;;;21.96;29.01
16100;BME280;8154;50.830;12.082;2022-12-18T15:19:00;100822.13;;;21.90;29.02
16100;BME280;8154;50.830;12.082;2022-12-18T15:21:46;100833.81;;;21.97;28.84
16100;BME280;8154;50.830;12.082;2022-12-18T15:24:32;100822.84;;;22.00;28.88
16100;BME280;8154;50.830;12.082;2022-12-18T15:27:36;100802.03;;;21.96;28.94
16100;BME280;8154;50.830;12.082;2022-12-18T15:30:26;100806.44;;;21.87;29.02
16100;BME280;8154;50.830;12.082;2022-12-18T15:33:37;100805.06;;;21.83;29.06
16100;BME280;8154;50.830;12.082;2022-12-18T15:36:23;100812.25;;;21.83;29.05
16100;BME280;8154;50.830;12.082;2022-12-18T15:39:12;100802.56;;;21.82;29.08
16100;BME280;8154;50.830;12.082;2022-12-18T15:42:01;100810.09;;;21.86;28.99
16100;BME280;8154;50.830;12.082;2022-12-18T15:45:05;100808.50;;;21.93;28.88
16100;BME280;8154;50.830;12.082;2022-12-18T15:47:51;100804.25;;;21.83;28.98
16100;BME280;8154;50.830;12.082;2022-12-18T15:50:35;100803.41;;;21.82;28.89
16100;BME280;8154;50.830;12.082;2022-12-18T15:53:30;100815.03;;;21.81;29.05
16100;BME280;8154;50.830;12.082;2022-12-18T15:56:17;100809.94;;;21.88;28.89
16100;BME280;8154;50.830;12.082;2022-12-18T15:59:22;100814.75;;;21.84;28.95
16100;BME280;8154;50.830;12.082;2022-12-18T16:02:16;100813.22;;;21.82;28.97
16100;BME280;8154;50.830;12.082;2022-12-18T16:05:19;100817.91;;;21.88;28.75
16100;BME280;8154;50.830;12.082;2022-12-18T16:08:14;100809.28;;;21.86;28.87
16100;BME280;8154;50.830;12.082;2022-12-18T16:11:01;100809.03;;;21.79;28.95
16100;BME280;8154;50.830;12.082;2022-12-18T16:13:47;100808.19;;;21.79;28.98
16100;BME280;8154;50.830;12.082;2022-12-18T16:16:33;100795.31;;;21.74;29.05
16100;BME280;8154;50.830;12.082;2022-12-18T16:19:19;100795.88;;;21.78;28.98
16100;BME280;8154;50.830;12.082;2022-12-18T16:22:08;100790.63;;;21.86;28.79
16100;BME280;8154;50.830;12.082;2022-12-18T16:25:00;100789.63;;;21.87;28.88
16100;BME280;8154;50.830;12.082;2022-12-18T16:27:46;100785.16;;;21.87;28.67
16100;BME280;8154;50.830;12.082;2022-12-18T16:30:32;100779.75;;;21.79;28.90